createdAt,value
2022-09-07T00:00:31.929Z,12.93
2022-09-07T00:03:17.693Z,9.82
2022-09-07T00:06:09.277Z,14.77
2022-09-07T00:08:55.419Z,9.57
2022-09-07T00:11:40.860Z,9.35
2022-09-07T00:14:26.357Z,16.17
2022-09-07T00:17:11.623Z,10.93
2022-09-07T00:19:57.177Z,6.97
2022-09-07T00:22:42.429Z,7.72
2022-09-07T00:25:30.741Z,9.90
2022-09-07T00:28:17.325Z,9.82
2022-09-07T00:31:03.789Z,10.98
2022-09-07T00:33:50.706Z,8.30
2022-09-07T00:36:36.070Z,8.57
2022-09-07T00:39:21.309Z,7.18
2022-09-07T00:42:06.796Z,7.63
2022-09-07T00:45:01.915Z,10.07
2022-09-07T00:47:56.817Z,8.35
2022-09-07T00:50:53.578Z,10.48
2022-09-07T00:53:44.938Z,9.65
2022-09-07T00:56:34.847Z,9.52
2022-09-07T00:59:25.172Z,7.32
2022-09-07T01:02:12.332Z,8.75
2022-09-07T01:05:09.513Z,8.85
2022-09-07T01:07:56.431Z,11.68
2022-09-07T01:10:42.238Z,5.60
2022-09-07T01:13:28.025Z,6.18
2022-09-07T01:16:32.712Z,10.05
2022-09-07T01:19:27.268Z,9.60
2022-09-07T01:22:28.208Z,8.15
2022-09-07T01:25:25.933Z,8.88
2022-09-07T01:28:22.092Z,14.38
2022-09-07T01:31:42.983Z,7.78
2022-09-07T01:34:28.657Z,10.93
2022-09-07T01:37:43.547Z,6.93
2022-09-07T01:41:13.875Z,11.43
2022-09-07T01:44:40.612Z,7.85
2022-09-07T01:47:32.124Z,7.22
2022-09-07T01:50:36.331Z,11.32
2022-09-07T01:53:45.133Z,6.30
2022-09-07T01:56:36.153Z,7.90
2022-09-07T01:59:27.613Z,10.40
2022-09-07T02:02:28.648Z,6.47
2022-09-07T02:05:20.865Z,7.55
2022-09-07T02:08:10.579Z,9.27
2022-09-07T02:11:02.309Z,7.45
2022-09-07T02:13:56.682Z,7.88
2022-09-07T02:17:06.725Z,6.75
2022-09-07T02:20:03.627Z,8.27
2022-09-07T02:22:54.174Z,8.13
2022-09-07T02:25:44.726Z,6.22
2022-09-07T02:28:35.485Z,6.97
2022-09-07T02:31:21.482Z,8.00
2022-09-07T02:34:07.134Z,8.50
2022-09-07T02:36:54.133Z,6.55
2022-09-07T02:39:39.784Z,10.50
2022-09-07T02:42:35.890Z,8.52
2022-09-07T02:45:21.951Z,7.80
2022-09-07T02:48:23.126Z,8.57
2022-09-07T02:51:50.102Z,7.35
2022-09-07T02:55:00.715Z,7.22
2022-09-07T02:58:20.805Z,8.93
2022-09-07T03:01:09.123Z,7.25
2022-09-07T03:04:12.852Z,9.55
2022-09-07T03:07:30.253Z,6.90
2022-09-07T03:10:17.980Z,7.28
2022-09-07T03:13:03.810Z,8.35
2022-09-07T03:15:55.025Z,10.45
2022-09-07T03:18:42.476Z,9.00
2022-09-07T03:21:27.896Z,8.50
2022-09-07T03:24:13.094Z,9.48
2022-09-07T03:26:59.155Z,8.07
2022-09-07T03:29:44.680Z,6.05
2022-09-07T03:32:35.069Z,6.45
2022-09-07T03:35:20.594Z,7.63
2022-09-07T03:38:06.229Z,6.65
2022-09-07T03:41:06.791Z,10.43
2022-09-07T03:43:52.372Z,5.78
2022-09-07T03:46:37.871Z,6.07
2022-09-07T03:49:23.263Z,6.72
2022-09-07T03:52:08.856Z,5.57
2022-09-07T03:54:54.193Z,8.88
2022-09-07T03:57:40.439Z,8.40
2022-09-07T04:00:26.101Z,8.13
2022-09-07T04:03:11.483Z,14.88
2022-09-07T04:05:59.818Z,10.82
2022-09-07T04:08:45.824Z,10.20
2022-09-07T04:11:32.022Z,4.70
2022-09-07T04:14:17.946Z,11.23
2022-09-07T04:17:03.433Z,6.65
2022-09-07T04:19:49.297Z,6.40
2022-09-07T04:22:35.250Z,8.52
2022-09-07T04:25:20.898Z,9.10
2022-09-07T04:28:06.462Z,8.63
2022-09-07T04:30:51.911Z,11.00
2022-09-07T04:33:37.761Z,8.93
2022-09-07T04:36:24.966Z,7.00
2022-09-07T04:39:11.088Z,5.28
2022-09-07T04:41:56.851Z,9.20
2022-09-07T04:44:42.230Z,9.27
2022-09-07T04:47:30.594Z,10.60
2022-09-07T04:50:18.067Z,8.20
2022-09-07T04:53:03.839Z,8.88
2022-09-07T04:55:49.124Z,7.00
2022-09-07T04:58:35.333Z,8.75
2022-09-07T05:01:22.826Z,7.55
2022-09-07T05:04:09.035Z,8.95
2022-09-07T05:06:54.841Z,6.40
2022-09-07T05:09:40.434Z,8.60
2022-09-07T05:12:25.889Z,9.40
2022-09-07T05:15:11.575Z,6.47
2022-09-07T05:18:00.312Z,5.90
2022-09-07T05:20:45.751Z,10.85
2022-09-07T05:23:31.165Z,9.55
2022-09-07T05:26:17.165Z,6.45
2022-09-07T05:32:11.206Z,10.73
2022-09-07T05:34:56.502Z,11.43
2022-09-07T05:37:41.974Z,7.50
2022-09-07T05:40:31.820Z,6.80
2022-09-07T05:43:18.014Z,8.57
2022-09-07T05:46:03.961Z,19.10
2022-09-07T05:48:50.094Z,9.63
2022-09-07T05:51:37.239Z,6.25
2022-09-07T05:54:22.600Z,9.95
2022-09-07T05:57:11.466Z,6.07
2022-09-07T05:59:56.934Z,5.03
2022-09-07T06:02:43.397Z,9.18
2022-09-07T06:05:29.050Z,8.48
2022-09-07T06:08:14.422Z,4.03
2022-09-07T06:11:08.724Z,7.65
2022-09-07T06:13:54.214Z,9.55
2022-09-07T06:16:40.286Z,5.97
2022-09-07T06:19:25.587Z,8.00
2022-09-07T06:22:11.243Z,4.57
2022-09-07T06:24:56.899Z,4.90
2022-09-07T06:27:42.264Z,4.38
2022-09-07T06:30:27.795Z,6.90
2022-09-07T06:33:15.011Z,4.95
2022-09-07T06:36:05.238Z,7.25
2022-09-07T06:38:51.581Z,4.15
2022-09-07T06:44:48.188Z,5.82
2022-09-07T06:47:33.582Z,6.93
2022-09-07T06:50:18.888Z,4.80
2022-09-07T06:56:13.441Z,5.88
2022-09-07T06:58:59.833Z,4.50
2022-09-07T07:01:45.639Z,9.05
2022-09-07T07:04:30.874Z,9.10
2022-09-07T07:07:16.439Z,8.55
2022-09-07T07:10:01.890Z,6.75
2022-09-07T07:12:47.276Z,6.82
2022-09-07T07:15:33.420Z,5.40
2022-09-07T07:18:21.235Z,7.35
2022-09-07T07:21:12.807Z,7.78
2022-09-07T07:23:58.822Z,7.72
2022-09-07T07:26:48.579Z,7.03
2022-09-07T07:29:34.231Z,4.47
2022-09-07T07:32:19.767Z,4.43
2022-09-07T07:35:07.467Z,5.30
2022-09-07T07:44:05.585Z,5.13
2022-09-07T07:46:51.703Z,4.10
2022-09-07T07:49:37.309Z,5.35
2022-09-07T07:55:43.745Z,5.15
2022-09-07T07:58:32.512Z,5.45
2022-09-07T08:01:22.138Z,5.70
2022-09-07T08:04:08.125Z,3.83
2022-09-07T08:06:53.820Z,3.67
2022-09-07T08:09:44.465Z,5.35
2022-09-07T08:12:31.333Z,5.47
2022-09-07T08:15:16.880Z,4.82
2022-09-07T08:18:03.795Z,5.75
2022-09-07T08:20:49.396Z,12.68
2022-09-07T08:23:35.180Z,6.20
2022-09-07T08:26:20.883Z,6.75
2022-09-07T08:29:06.361Z,5.85
2022-09-07T08:31:52.123Z,5.90
2022-09-07T08:34:56.785Z,3.45
2022-09-07T08:37:42.069Z,3.38
2022-09-07T08:40:27.552Z,4.35
2022-09-07T08:43:21.647Z,3.00
2022-09-07T08:46:27.946Z,7.53
2022-09-07T08:49:20.419Z,3.45
2022-09-07T08:52:12.147Z,3.53
2022-09-07T08:58:45.265Z,10.55
2022-09-07T09:01:33.145Z,7.93
2022-09-07T09:04:28.654Z,5.27
2022-09-07T09:07:36.081Z,3.22
2022-09-07T09:10:35.925Z,4.88
2022-09-07T09:13:34.762Z,5.88
2022-09-07T09:16:38.290Z,4.15
2022-09-07T09:20:08.170Z,3.42
2022-09-07T09:23:39.511Z,3.45
2022-09-07T09:26:27.368Z,3.70
2022-09-07T09:29:21.457Z,7.15
2022-09-07T09:32:41.418Z,2.85
2022-09-07T09:35:36.165Z,3.55
2022-09-07T09:38:29.489Z,2.80
2022-09-07T09:41:16.161Z,3.63
2022-09-07T09:44:03.437Z,2.70
2022-09-07T09:50:05.309Z,3.40
2022-09-07T09:52:52.779Z,2.47
2022-09-07T09:55:38.238Z,3.83
2022-09-07T10:04:51.787Z,4.00
2022-09-07T10:07:37.733Z,5.05
2022-09-07T10:10:23.761Z,6.40
2022-09-07T10:13:21.571Z,4.90
2022-09-07T10:16:09.227Z,2.35
2022-09-07T10:18:57.648Z,2.88
2022-09-07T10:21:57.998Z,3.65
2022-09-07T10:24:44.621Z,3.25
2022-09-07T10:27:33.187Z,3.10
2022-09-07T10:30:19.026Z,5.78
2022-09-07T10:33:12.258Z,6.32
2022-09-07T10:36:24.179Z,3.75
2022-09-07T10:43:20.554Z,3.65
2022-09-07T10:46:06.873Z,3.35
2022-09-07T10:49:37.797Z,7.47
2022-09-07T10:52:23.971Z,4.88
2022-09-07T10:55:16.965Z,3.47
2022-09-07T10:58:21.131Z,2.78
2022-09-07T11:01:51.979Z,4.70
2022-09-07T11:05:31.085Z,4.25
2022-09-07T11:12:01.116Z,3.40
2022-09-07T11:14:52.615Z,3.17
2022-09-07T11:18:04.794Z,2.88
2022-09-07T11:24:03.802Z,5.78
2022-09-07T11:26:55.204Z,3.80
2022-09-07T11:30:24.134Z,3.88
2022-09-07T11:33:25.332Z,5.38
2022-09-07T11:36:18.105Z,7.47
2022-09-07T11:39:17.497Z,3.55
2022-09-07T11:45:30.898Z,3.05
2022-09-07T11:48:41.702Z,5.63
2022-09-07T11:51:38.852Z,5.70
2022-09-07T11:54:43.157Z,3.78
2022-09-07T11:57:53.614Z,2.40
2022-09-07T12:00:43.726Z,4.28
2022-09-07T12:04:15.418Z,7.72
2022-09-07T12:07:26.890Z,6.70
2022-09-07T12:10:51.144Z,7.45
2022-09-07T12:13:58.500Z,3.42
2022-09-07T12:17:04.073Z,3.55
2022-09-07T12:20:18.641Z,2.88
2022-09-07T12:23:16.370Z,6.53
2022-09-07T12:26:33.471Z,2.38
2022-09-07T12:29:24.839Z,93.45
2022-09-07T12:35:33.983Z,4.30
2022-09-07T12:38:19.547Z,7.00
2022-09-07T12:41:24.873Z,3.13
2022-09-07T12:44:20.122Z,3.08
2022-09-07T12:47:12.577Z,3.47
2022-09-07T12:50:06.576Z,3.33
2022-09-07T12:53:10.800Z,6.18
2022-09-07T12:56:24.574Z,3.55
2022-09-07T12:59:32.754Z,4.63
2022-09-07T13:02:33.738Z,2.92
2022-09-07T13:05:35.925Z,3.33
2022-09-07T13:08:46.848Z,3.00
2022-09-07T13:11:38.437Z,4.03
2022-09-07T13:14:28.665Z,4.70
2022-09-07T13:17:34.798Z,3.97
2022-09-07T13:20:24.075Z,4.93
2022-09-07T13:23:21.283Z,2.85
2022-09-07T13:26:10.922Z,3.00
2022-09-07T13:29:00.965Z,2.50
2022-09-07T13:32:10.382Z,7.00
2022-09-07T13:35:03.430Z,3.20
2022-09-07T13:37:54.378Z,3.33
2022-09-07T13:40:47.033Z,2.33
2022-09-07T13:43:34.669Z,5.68
2022-09-07T13:46:32.253Z,11.10
2022-09-07T13:49:55.880Z,2.78
2022-09-07T13:53:07.204Z,4.15
2022-09-07T13:56:08.612Z,5.03
2022-09-07T14:01:45.429Z,3.20
2022-09-07T14:04:41.264Z,6.45
2022-09-07T14:07:29.692Z,6.88
2022-09-07T14:10:25.147Z,4.50
2022-09-07T14:13:12.830Z,2.58
2022-09-07T14:15:58.636Z,3.28
2022-09-07T14:18:44.415Z,2.75
2022-09-07T14:21:31.292Z,4.20
2022-09-07T14:24:29.693Z,5.10
2022-09-07T14:27:35.006Z,2.63
2022-09-07T14:30:25.313Z,3.40
2022-09-07T14:33:17.401Z,3.28
2022-09-07T14:36:23.294Z,3.33
2022-09-07T14:39:12.251Z,3.95
2022-09-07T14:41:58.929Z,2.35
2022-09-07T14:44:45.416Z,2.47
2022-09-07T14:47:34.071Z,2.88
2022-09-07T14:50:34.710Z,2.50
2022-09-07T14:53:36.309Z,2.47
2022-09-07T14:56:31.489Z,5.95
2022-09-07T14:59:28.518Z,3.17
2022-09-07T15:02:28.237Z,6.03
2022-09-07T15:05:25.969Z,2.78
2022-09-07T15:08:20.383Z,3.15
2022-09-07T15:14:20.787Z,5.82
2022-09-07T15:20:42.747Z,3.20
2022-09-07T15:23:29.305Z,3.50
2022-09-07T15:29:21.576Z,5.95
2022-09-07T15:32:09.962Z,6.10
2022-09-07T15:34:55.354Z,3.53
2022-09-07T15:41:18.143Z,4.03
2022-09-07T15:43:57.893Z,3.35
2022-09-07T15:47:43.225Z,2.60
2022-09-07T15:49:51.512Z,2.85
2022-09-07T15:52:39.930Z,8.50
2022-09-07T15:55:25.740Z,14.27
2022-09-07T15:58:14.395Z,29.17
2022-09-07T16:04:07.206Z,27.65
2022-09-07T16:06:52.524Z,13.07
2022-09-07T16:09:37.985Z,10.45
2022-09-07T16:15:28.656Z,6.95
2022-09-07T16:18:17.133Z,6.30
2022-09-07T16:21:06.727Z,10.75
2022-09-07T16:23:54.162Z,5.78
2022-09-07T16:26:40.100Z,3.40
2022-09-07T16:29:26.670Z,11.18
2022-09-07T16:35:18.155Z,31.40
2022-09-07T16:41:17.080Z,28.02
2022-09-07T16:44:02.937Z,24.27
2022-09-07T16:46:50.412Z,56.33
2022-09-07T16:49:36.744Z,69.25
2022-09-07T16:52:23.380Z,37.08
2022-09-07T16:55:09.337Z,28.85
2022-09-07T17:01:00.178Z,46.92
2022-09-07T17:03:46.275Z,46.30
2022-09-07T17:06:31.717Z,37.10
2022-09-07T17:09:17.225Z,35.88
2022-09-07T17:12:03.641Z,26.38
2022-09-07T17:14:48.946Z,39.33
2022-09-07T17:17:34.446Z,40.80
2022-09-07T17:20:19.861Z,58.85
2022-09-07T17:23:05.400Z,69.20
2022-09-07T17:25:51.023Z,72.97
2022-09-07T17:28:37.626Z,58.30
2022-09-07T17:34:31.596Z,62.80
2022-09-07T17:37:17.736Z,119.97
2022-09-07T17:40:05.745Z,65.97
2022-09-07T17:46:03.012Z,78.93
2022-09-07T17:48:57.115Z,131.48
2022-09-07T17:51:43.860Z,150.93
2022-09-07T17:54:29.065Z,216.35
2022-09-07T17:57:14.422Z,162.07
2022-09-07T18:00:16.213Z,124.25
2022-09-07T18:03:03.513Z,82.32
2022-09-07T18:05:53.634Z,72.10
2022-09-07T18:08:39.576Z,49.50
2022-09-07T18:14:31.049Z,50.17
2022-09-07T18:17:16.796Z,64.68
2022-09-07T18:20:02.497Z,86.00
2022-09-07T18:22:48.435Z,92.88
2022-09-07T18:25:34.472Z,76.88
2022-09-07T18:31:26.178Z,61.72
2022-09-07T18:34:12.116Z,57.92
2022-09-07T18:36:58.226Z,46.50
2022-09-07T18:39:43.736Z,42.58
2022-09-07T18:42:30.318Z,36.10
2022-09-07T18:45:31.225Z,41.67
2022-09-07T18:48:16.793Z,33.88
2022-09-07T18:51:02.742Z,29.73
2022-09-07T18:53:48.509Z,34.53
2022-09-07T18:56:34.011Z,31.33
2022-09-07T18:59:19.476Z,23.80
2022-09-07T19:02:08.021Z,38.17
2022-09-07T19:08:03.511Z,52.92
2022-09-07T19:10:49.113Z,54.00
2022-09-07T19:13:35.858Z,65.93
2022-09-07T19:16:21.587Z,63.92
2022-09-07T19:19:07.464Z,94.20
2022-09-07T19:21:54.576Z,93.53
2022-09-07T19:24:40.099Z,90.38
2022-09-07T19:27:27.124Z,82.25
2022-09-07T19:30:13.286Z,75.18
2022-09-07T19:33:03.996Z,67.25
2022-09-07T19:35:50.780Z,35.45
2022-09-07T19:38:37.007Z,28.08
2022-09-07T19:41:22.620Z,20.42
2022-09-07T19:44:08.546Z,20.00
2022-09-07T19:46:53.857Z,20.33
2022-09-07T19:49:39.347Z,27.45
2022-09-07T19:52:24.714Z,21.23
2022-09-07T19:55:10.133Z,27.77
2022-09-07T19:57:55.572Z,24.02
2022-09-07T20:00:41.827Z,23.17
2022-09-07T20:03:27.247Z,23.02
2022-09-07T20:06:15.716Z,22.00
2022-09-07T20:09:03.244Z,20.50
2022-09-07T20:11:52.864Z,22.07
2022-09-07T20:14:38.158Z,24.00
2022-09-07T20:17:24.175Z,20.92
2022-09-07T20:20:10.085Z,21.33
2022-09-07T20:22:55.858Z,26.38
2022-09-07T20:25:41.097Z,28.25
2022-09-07T20:28:27.243Z,29.13
2022-09-07T20:31:20.314Z,27.50
2022-09-07T20:34:05.886Z,20.10
2022-09-07T20:36:52.204Z,22.23
2022-09-07T20:39:39.568Z,20.70
2022-09-07T20:42:25.491Z,19.27
2022-09-07T20:45:11.037Z,18.05
2022-09-07T20:47:56.280Z,18.85
2022-09-07T20:50:42.039Z,24.15
2022-09-07T20:53:31.362Z,22.92
2022-09-07T20:56:22.377Z,24.02
2022-09-07T20:59:08.172Z,35.58
2022-09-07T21:01:53.660Z,29.35
2022-09-07T21:04:42.197Z,30.98
2022-09-07T21:07:27.448Z,31.20
2022-09-07T21:10:12.883Z,32.28
2022-09-07T21:12:58.176Z,30.25
2022-09-07T21:15:44.919Z,30.90
2022-09-07T21:18:30.486Z,24.92
2022-09-07T21:21:20.374Z,23.67
2022-09-07T21:24:12.937Z,18.00
2022-09-07T21:29:43.972Z,19.40
2022-09-07T21:32:29.290Z,20.88
2022-09-07T21:35:14.720Z,14.63
2022-09-07T21:38:00.701Z,14.02
2022-09-07T21:40:46.216Z,15.88
2022-09-07T21:43:31.654Z,18.70
2022-09-07T21:46:18.709Z,17.85
2022-09-07T21:49:04.704Z,12.88
2022-09-07T21:51:50.374Z,15.65
2022-09-07T21:54:35.901Z,14.80
2022-09-07T21:57:21.163Z,17.90
2022-09-07T22:00:08.816Z,19.88
2022-09-07T22:02:54.705Z,17.83
2022-09-07T22:05:40.111Z,17.55
2022-09-07T22:08:25.581Z,16.27
2022-09-07T22:11:17.446Z,13.95
2022-09-07T22:14:04.476Z,15.82
2022-09-07T22:16:50.087Z,18.92
2022-09-07T22:19:35.817Z,16.80
2022-09-07T22:22:21.422Z,16.42
2022-09-07T22:25:06.979Z,15.02
2022-09-07T22:27:53.429Z,14.90
2022-09-07T22:30:39.005Z,17.10
2022-09-07T22:33:24.350Z,18.50
2022-09-07T22:36:25.052Z,14.85
2022-09-07T22:39:16.796Z,23.00
2022-09-07T22:42:02.427Z,22.00
2022-09-07T22:44:47.784Z,18.00
2022-09-07T22:47:33.274Z,22.17
2022-09-07T22:50:20.379Z,24.80
2022-09-07T22:53:05.528Z,26.70
2022-09-07T22:55:50.927Z,24.25
2022-09-07T22:58:37.335Z,17.13
2022-09-07T23:01:23.566Z,23.25
2022-09-07T23:04:10.498Z,19.55
2022-09-07T23:06:56.847Z,13.80
2022-09-07T23:09:41.995Z,14.32
2022-09-07T23:12:27.419Z,12.10
2022-09-07T23:15:12.710Z,11.60
2022-09-07T23:17:58.571Z,13.02
2022-09-07T23:20:44.194Z,14.13
2022-09-07T23:23:29.896Z,11.88
2022-09-07T23:26:15.088Z,13.38
2022-09-07T23:29:03.429Z,13.13
2022-09-07T23:31:49.024Z,10.93
2022-09-07T23:34:34.676Z,8.80
2022-09-07T23:37:19.994Z,9.98
2022-09-07T23:40:06.420Z,11.25
2022-09-07T23:42:51.799Z,11.15
2022-09-07T23:45:37.134Z,15.07
2022-09-07T23:48:25.141Z,11.63
2022-09-07T23:51:11.916Z,10.05
2022-09-07T23:53:57.280Z,10.48
2022-09-07T23:56:42.893Z,10.32
2022-09-07T23:59:28.090Z,11.38
